createdAt,value
2022-11-07T00:00:57.263Z,90.00
2022-11-07T00:01:57.123Z,89.48
2022-11-07T00:02:57.412Z,87.62
2022-11-07T00:03:57.064Z,87.82
2022-11-07T00:04:57.143Z,86.79
2022-11-07T00:05:57.233Z,88.24
2022-11-07T00:06:57.143Z,88.55
2022-11-07T00:07:57.146Z,89.65
2022-11-07T00:08:57.215Z,88.46
2022-11-07T00:09:57.064Z,87.64
2022-11-07T00:10:56.857Z,86.67
2022-11-07T00:11:57.248Z,87.25
2022-11-07T00:12:57.873Z,84.11
2022-11-07T00:13:58.053Z,81.52
2022-11-07T00:14:57.883Z,81.42
2022-11-07T00:15:58.074Z,81.91
2022-11-07T00:16:57.983Z,82.88
2022-11-07T00:17:58.104Z,84.58
2022-11-07T00:18:57.902Z,84.92
2022-11-07T00:19:58.052Z,85.86
2022-11-07T00:20:57.884Z,85.92
2022-11-07T00:21:58.043Z,84.99
2022-11-07T00:22:57.902Z,84.68
2022-11-07T00:23:58.024Z,84.61
2022-11-07T00:24:57.863Z,85.96
2022-11-07T00:25:57.927Z,86.17
2022-11-07T00:26:57.958Z,85.48
2022-11-07T00:27:57.725Z,86.25
2022-11-07T00:28:57.953Z,86.66
2022-11-07T00:29:57.923Z,86.91
2022-11-07T00:30:57.943Z,87.05
2022-11-07T00:31:57.895Z,87.57
2022-11-07T00:33:00.167Z,88.13
2022-11-07T00:33:56.815Z,88.54
2022-11-07T00:34:56.924Z,89.31
2022-11-07T00:35:56.672Z,89.48
2022-11-07T00:36:56.903Z,89.37
2022-11-07T00:37:56.684Z,89.06
2022-11-07T00:38:56.905Z,89.27
2022-11-07T00:39:56.733Z,89.34
2022-11-07T00:40:56.815Z,89.34
2022-11-07T00:41:56.917Z,89.54
2022-11-07T00:42:56.582Z,89.65
2022-11-07T00:43:56.816Z,89.75
2022-11-07T00:44:56.576Z,89.96
2022-11-07T00:45:56.697Z,90.17
2022-11-07T00:46:56.649Z,89.86
2022-11-07T00:47:56.693Z,89.61
2022-11-07T00:48:56.562Z,88.98
2022-11-07T00:49:56.764Z,89.19
2022-11-07T00:50:56.575Z,89.61
2022-11-07T00:51:56.660Z,89.19
2022-11-07T00:52:56.694Z,90.02
2022-11-07T00:53:56.603Z,89.81
2022-11-07T00:54:56.533Z,89.50
2022-11-07T00:55:56.572Z,89.50
2022-11-07T00:56:56.543Z,89.29
2022-11-07T00:57:56.492Z,89.29
2022-11-07T00:58:56.523Z,88.94
2022-11-07T00:59:56.474Z,88.84
2022-11-07T01:00:56.676Z,88.84
2022-11-07T01:01:56.434Z,88.94
2022-11-07T01:02:56.711Z,88.73
2022-11-07T01:03:56.413Z,88.73
2022-11-07T01:04:56.523Z,88.63
2022-11-07T01:05:56.413Z,88.73
2022-11-07T01:06:56.493Z,88.73
2022-11-07T01:07:56.393Z,89.09
2022-11-07T01:08:56.568Z,88.73
2022-11-07T01:09:56.443Z,89.36
2022-11-07T01:10:57.466Z,89.67
2022-11-07T01:11:56.413Z,89.25
2022-11-07T01:12:56.213Z,89.36
2022-11-07T01:13:56.474Z,89.36
2022-11-07T01:14:56.284Z,89.00
2022-11-07T01:15:56.383Z,88.79
2022-11-07T01:16:56.233Z,88.39
2022-11-07T01:17:56.406Z,88.39
2022-11-07T01:18:56.295Z,88.07
2022-11-07T01:19:56.353Z,87.87
2022-11-07T01:20:56.345Z,87.55
2022-11-07T01:21:56.455Z,88.39
2022-11-07T01:22:56.215Z,88.01
2022-11-07T01:23:56.543Z,88.28
2022-11-07T01:24:56.243Z,88.69
2022-11-07T01:25:56.303Z,88.48
2022-11-07T01:26:56.244Z,88.11
2022-11-07T01:27:56.083Z,88.11
2022-11-07T01:28:56.243Z,88.42
2022-11-07T01:29:56.045Z,88.21
2022-11-07T01:30:56.224Z,88.42
2022-11-07T01:31:56.144Z,88.32
2022-11-07T01:32:56.254Z,88.42
2022-11-07T01:33:56.144Z,88.39
2022-11-07T01:34:56.195Z,88.79
2022-11-07T01:35:56.164Z,88.79
2022-11-07T01:36:56.383Z,88.90
2022-11-07T01:37:56.055Z,88.48
2022-11-07T01:38:56.313Z,88.39
2022-11-07T01:39:56.303Z,88.59
2022-11-07T01:40:56.104Z,89.00
2022-11-07T01:41:56.163Z,88.69
2022-11-07T01:42:55.975Z,88.48
2022-11-07T01:43:56.088Z,89.00
2022-11-07T01:44:55.964Z,88.79
2022-11-07T01:45:56.203Z,88.69
2022-11-07T01:46:55.925Z,88.69
2022-11-07T01:47:56.245Z,88.69
2022-11-07T01:48:55.994Z,89.00
2022-11-07T01:49:56.113Z,88.90
2022-11-07T01:50:55.893Z,89.00
2022-11-07T01:51:56.014Z,88.45
2022-11-07T01:52:55.946Z,88.28
2022-11-07T01:53:56.203Z,88.34
2022-11-07T01:54:55.964Z,88.24
2022-11-07T01:55:56.164Z,87.93
2022-11-07T01:56:56.014Z,87.97
2022-11-07T01:57:55.944Z,88.59
2022-11-07T01:58:56.003Z,89.11
2022-11-07T01:59:55.774Z,88.79
2022-11-07T02:00:55.934Z,89.00
2022-11-07T02:01:56.043Z,88.79
2022-11-07T02:02:56.043Z,88.69
2022-11-07T02:03:55.837Z,88.76
2022-11-07T02:04:56.024Z,88.76
2022-11-07T02:05:55.805Z,88.55
2022-11-07T02:06:55.963Z,88.76
2022-11-07T02:07:55.803Z,88.65
2022-11-07T02:08:55.823Z,88.96
2022-11-07T02:09:55.816Z,88.86
2022-11-07T02:10:55.964Z,88.96
2022-11-07T02:11:55.764Z,88.65
2022-11-07T02:12:55.979Z,88.55
2022-11-07T02:13:55.753Z,88.55
2022-11-07T02:14:55.593Z,88.76
2022-11-07T02:15:55.754Z,88.86
2022-11-07T02:16:55.704Z,89.23
2022-11-07T02:17:55.753Z,88.92
2022-11-07T02:18:55.654Z,88.51
2022-11-07T02:19:55.935Z,88.82
2022-11-07T02:20:55.614Z,89.40
2022-11-07T02:21:55.743Z,87.78
2022-11-07T02:22:55.634Z,88.09
2022-11-07T02:23:55.764Z,88.30
2022-11-07T02:24:55.667Z,88.26
2022-11-07T02:25:55.693Z,88.20
2022-11-07T02:26:55.574Z,88.67
2022-11-07T02:27:55.685Z,88.26
2022-11-07T02:28:55.614Z,87.95
2022-11-07T02:29:55.453Z,87.64
2022-11-07T02:30:55.603Z,87.12
2022-11-07T02:31:55.614Z,87.27
2022-11-07T02:32:55.597Z,88.40
2022-11-07T02:33:55.494Z,88.20
2022-11-07T02:34:55.773Z,88.61
2022-11-07T02:35:55.393Z,88.30
2022-11-07T02:36:55.653Z,87.88
2022-11-07T02:37:55.485Z,88.09
2022-11-07T02:38:55.573Z,88.20
2022-11-07T02:39:55.452Z,87.99
2022-11-07T02:40:55.521Z,88.09
2022-11-07T02:41:55.494Z,88.20
2022-11-07T02:42:55.594Z,88.61
2022-11-07T02:43:55.412Z,88.57
2022-11-07T02:44:55.213Z,88.88
2022-11-07T02:45:55.412Z,88.88
2022-11-07T02:46:55.233Z,89.19
2022-11-07T02:47:55.548Z,88.98
2022-11-07T02:48:55.263Z,88.98
2022-11-07T02:49:55.442Z,88.67
2022-11-07T02:50:55.254Z,88.46
2022-11-07T02:51:55.426Z,88.57
2022-11-07T02:52:55.343Z,88.88
2022-11-07T02:53:55.503Z,89.09
2022-11-07T02:54:55.406Z,88.98
2022-11-07T02:55:55.363Z,89.09
2022-11-07T02:56:56.405Z,88.46
2022-11-07T02:57:55.513Z,88.01
2022-11-07T02:58:55.462Z,87.85
2022-11-07T02:59:55.363Z,88.32
2022-11-07T03:00:55.323Z,88.32
2022-11-07T03:01:55.363Z,88.32
2022-11-07T03:02:55.376Z,88.84
2022-11-07T03:03:55.187Z,89.77
2022-11-07T03:04:55.344Z,88.80
2022-11-07T03:05:55.136Z,87.97
2022-11-07T03:06:55.242Z,87.87
2022-11-07T03:07:55.162Z,87.46
2022-11-07T03:08:55.234Z,87.66
2022-11-07T03:09:55.145Z,87.76
2022-11-07T03:10:55.255Z,87.76
2022-11-07T03:11:55.183Z,87.76
2022-11-07T03:12:55.183Z,87.25
2022-11-07T03:13:55.111Z,87.91
2022-11-07T03:14:55.305Z,88.12
2022-11-07T03:15:55.111Z,88.28
2022-11-07T03:16:55.214Z,87.87
2022-11-07T03:17:55.105Z,88.18
2022-11-07T03:18:55.055Z,87.97
2022-11-07T03:19:55.080Z,87.97
2022-11-07T03:20:54.903Z,88.39
2022-11-07T03:21:55.103Z,88.70
2022-11-07T03:22:55.040Z,88.28
2022-11-07T03:23:55.203Z,88.07
2022-11-07T03:24:54.985Z,88.34
2022-11-07T03:25:55.053Z,88.24
2022-11-07T03:26:54.984Z,88.55
2022-11-07T03:27:55.122Z,88.14
2022-11-07T03:28:55.003Z,87.62
2022-11-07T03:29:55.043Z,88.10
2022-11-07T03:30:54.934Z,87.79
2022-11-07T03:31:54.903Z,87.58
2022-11-07T03:32:55.044Z,87.68
2022-11-07T03:33:54.884Z,87.37
2022-11-07T03:34:54.944Z,87.37
2022-11-07T03:35:54.783Z,87.89
2022-11-07T03:36:54.983Z,88.20
2022-11-07T03:37:54.806Z,87.79
2022-11-07T03:38:54.973Z,89.86
2022-11-07T03:39:54.793Z,90.47
2022-11-07T03:40:54.923Z,89.92
2022-11-07T03:41:54.754Z,89.09
2022-11-07T03:42:54.902Z,88.22
2022-11-07T03:43:54.824Z,87.71
2022-11-07T03:44:54.883Z,87.81
2022-11-07T03:45:54.843Z,89.46
2022-11-07T03:46:54.724Z,88.84
2022-11-07T03:47:54.784Z,89.01
2022-11-07T03:48:54.735Z,87.98
2022-11-07T03:49:54.883Z,87.15
2022-11-07T03:50:54.613Z,86.90
2022-11-07T03:51:55.953Z,87.77
2022-11-07T03:52:54.644Z,86.84
2022-11-07T03:53:55.784Z,88.04
2022-11-07T03:54:54.605Z,88.65
2022-11-07T03:55:54.846Z,86.90
2022-11-07T03:56:54.654Z,86.90
2022-11-07T03:57:54.859Z,86.66
2022-11-07T03:58:54.695Z,85.94
2022-11-07T03:59:54.714Z,85.83
2022-11-07T04:00:55.685Z,85.36
2022-11-07T04:01:54.687Z,85.97
2022-11-07T04:02:54.929Z,86.84
2022-11-07T04:03:56.334Z,87.11
2022-11-07T04:04:55.653Z,87.42
2022-11-07T04:05:55.463Z,87.56
2022-11-07T04:06:54.763Z,87.77
2022-11-07T04:07:54.543Z,87.46
2022-11-07T04:08:54.613Z,87.98
2022-11-07T04:09:55.474Z,87.98
2022-11-07T04:10:54.645Z,87.77
2022-11-07T04:11:54.437Z,88.43
2022-11-07T04:12:54.586Z,89.67
2022-11-07T04:13:54.534Z,88.32
2022-11-07T04:14:54.654Z,89.36
2022-11-07T04:15:55.543Z,89.81
2022-11-07T04:16:54.514Z,90.84
2022-11-07T04:17:54.654Z,90.95
2022-11-07T04:18:54.373Z,90.12
2022-11-07T04:19:54.453Z,91.67
2022-11-07T04:20:54.363Z,90.95
2022-11-07T04:21:54.532Z,91.05
2022-11-07T04:22:54.354Z,92.08
2022-11-07T04:23:54.854Z,91.20
2022-11-07T04:24:54.294Z,91.40
2022-11-07T04:25:54.393Z,91.71
2022-11-07T04:26:54.384Z,93.47
2022-11-07T04:27:54.405Z,93.88
2022-11-07T04:28:54.515Z,95.18
2022-11-07T04:29:54.423Z,93.32
2022-11-07T04:30:54.277Z,94.46
2022-11-07T04:31:54.354Z,95.70
2022-11-07T04:32:54.456Z,95.70
2022-11-07T04:33:54.146Z,95.70
2022-11-07T04:34:54.393Z,96.62
2022-11-07T04:35:54.153Z,97.04
2022-11-07T04:36:54.346Z,97.34
2022-11-07T04:37:54.294Z,95.80
2022-11-07T04:38:54.353Z,97.14
2022-11-07T04:39:54.143Z,96.98
2022-11-07T04:40:54.323Z,97.60
2022-11-07T04:41:54.214Z,98.01
2022-11-07T04:42:54.263Z,98.43
2022-11-07T04:43:54.223Z,97.81
2022-11-07T04:44:54.254Z,97.75
2022-11-07T04:45:54.354Z,98.57
2022-11-07T04:46:54.306Z,99.51
2022-11-07T04:47:54.154Z,98.78
2022-11-07T04:48:54.123Z,98.52
2022-11-07T04:49:54.363Z,99.24
2022-11-07T04:50:54.093Z,99.86
2022-11-07T04:51:54.273Z,99.99
2022-11-07T04:52:54.183Z,99.99
2022-11-07T04:53:54.193Z,99.99
2022-11-07T04:54:54.053Z,99.99
2022-11-07T04:55:54.223Z,99.99
2022-11-07T04:56:53.963Z,99.99
2022-11-07T04:57:54.112Z,99.99
2022-11-07T04:58:54.086Z,99.99
2022-11-07T04:59:54.084Z,99.99
2022-11-07T05:00:54.083Z,99.99
2022-11-07T05:01:54.145Z,99.99
2022-11-07T05:02:54.037Z,99.99
2022-11-07T05:03:54.042Z,99.99
2022-11-07T05:04:54.023Z,99.99
2022-11-07T05:05:53.814Z,99.99
2022-11-07T05:06:53.993Z,99.99
2022-11-07T05:07:53.853Z,99.99
2022-11-07T05:08:54.103Z,99.99
2022-11-07T05:09:53.893Z,99.99
2022-11-07T05:10:54.043Z,99.99
2022-11-07T05:11:53.883Z,99.99
2022-11-07T05:12:53.975Z,99.99
2022-11-07T05:13:53.913Z,99.99
2022-11-07T05:14:53.922Z,99.99
2022-11-07T05:15:53.864Z,99.99
2022-11-07T05:16:53.954Z,99.99
2022-11-07T05:17:54.004Z,99.99
2022-11-07T05:18:53.913Z,99.99
2022-11-07T05:19:53.864Z,99.99
2022-11-07T05:20:53.743Z,99.99
2022-11-07T05:21:53.854Z,99.99
2022-11-07T05:22:56.419Z,99.99
2022-11-07T05:23:53.914Z,99.99
2022-11-07T05:24:53.813Z,99.99
2022-11-07T05:25:53.833Z,99.99
2022-11-07T05:26:53.793Z,99.99
2022-11-07T05:27:53.793Z,99.99
2022-11-07T05:28:53.843Z,99.99
2022-11-07T05:29:53.847Z,99.99
2022-11-07T05:30:53.665Z,99.99
2022-11-07T05:31:54.113Z,99.99
2022-11-07T05:32:53.679Z,99.99
2022-11-07T05:33:53.816Z,99.99
2022-11-07T05:34:54.013Z,99.99
2022-11-07T05:35:53.876Z,99.99
2022-11-07T05:36:53.673Z,99.99
2022-11-07T05:37:53.475Z,99.99
2022-11-07T05:38:53.755Z,99.99
2022-11-07T05:39:55.115Z,99.99
2022-11-07T05:40:53.697Z,99.99
2022-11-07T05:41:53.553Z,99.99
2022-11-07T05:42:53.644Z,99.99
2022-11-07T05:43:53.655Z,99.99
2022-11-07T05:44:54.033Z,99.99
2022-11-07T05:45:53.523Z,99.99
2022-11-07T05:46:53.593Z,99.99
2022-11-07T05:47:53.543Z,99.99
2022-11-07T05:48:58.046Z,99.99
2022-11-07T05:49:53.703Z,99.99
2022-11-07T05:50:53.346Z,99.99
2022-11-07T05:51:53.543Z,99.99
2022-11-07T05:52:53.410Z,99.99
2022-11-07T05:53:53.523Z,99.99
2022-11-07T05:54:53.423Z,99.99
2022-11-07T05:55:53.533Z,99.99
2022-11-07T05:56:53.413Z,99.99
2022-11-07T05:57:53.496Z,99.99
2022-11-07T05:58:53.393Z,99.99
2022-11-07T05:59:53.533Z,99.99
2022-11-07T06:00:53.565Z,99.99
2022-11-07T06:01:53.591Z,99.99
2022-11-07T06:02:53.612Z,99.99
2022-11-07T06:03:53.723Z,99.99
2022-11-07T06:04:53.373Z,99.99
2022-11-07T06:05:53.323Z,99.99
2022-11-07T06:06:53.566Z,99.99
2022-11-07T06:07:53.314Z,99.99
2022-11-07T06:08:53.443Z,99.98
2022-11-07T06:09:53.218Z,99.87
2022-11-07T06:10:53.472Z,99.98
2022-11-07T06:11:53.242Z,99.99
2022-11-07T06:12:56.095Z,99.99
2022-11-07T06:13:53.235Z,99.99
2022-11-07T06:14:53.354Z,99.72
2022-11-07T06:15:53.236Z,99.82
2022-11-07T06:16:53.284Z,99.62
2022-11-07T06:17:53.242Z,99.62
2022-11-07T06:18:53.513Z,99.47
2022-11-07T06:19:53.242Z,99.57
2022-11-07T06:20:53.513Z,99.37
2022-11-07T06:21:53.212Z,98.54
2022-11-07T06:22:53.733Z,98.85
2022-11-07T06:23:53.203Z,98.54
2022-11-07T06:24:53.174Z,98.91
2022-11-07T06:25:53.222Z,98.91
2022-11-07T06:26:53.234Z,98.39
2022-11-07T06:27:53.213Z,98.29
2022-11-07T06:28:53.023Z,98.19
2022-11-07T06:29:53.134Z,98.29
2022-11-07T06:30:53.013Z,97.36
2022-11-07T06:31:53.326Z,97.88
2022-11-07T06:32:53.033Z,98.03
2022-11-07T06:33:53.192Z,97.05
2022-11-07T06:34:53.133Z,97.26
2022-11-07T06:35:53.154Z,98.03
2022-11-07T06:37:01.513Z,97.52
2022-11-07T06:37:53.003Z,97.52
2022-11-07T06:38:53.052Z,97.73
2022-11-07T06:39:52.933Z,97.78
2022-11-07T06:40:53.023Z,97.38
2022-11-07T06:41:53.034Z,96.34
2022-11-07T06:42:53.013Z,96.14
2022-11-07T06:43:53.003Z,96.91
2022-11-07T06:44:53.026Z,97.48
2022-11-07T06:45:52.854Z,96.96
2022-11-07T06:46:53.042Z,97.27
2022-11-07T06:47:52.876Z,97.53
2022-11-07T06:48:52.983Z,96.66
2022-11-07T06:49:52.974Z,96.55
2022-11-07T06:50:52.964Z,96.75
2022-11-07T06:51:52.873Z,96.96
2022-11-07T06:52:52.772Z,97.58
2022-11-07T06:57:46.889Z,96.71
2022-11-07T06:58:45.709Z,96.61
2022-11-07T06:59:51.415Z,97.02
2022-11-07T07:00:45.750Z,96.71
2022-11-07T07:01:45.525Z,96.24
2022-11-07T07:02:58.078Z,96.75
2022-11-07T07:03:45.500Z,97.33
2022-11-07T07:04:45.695Z,96.55
2022-11-07T07:05:45.470Z,96.55
2022-11-07T07:06:45.719Z,97.27
2022-11-07T07:07:45.609Z,97.06
2022-11-07T07:08:45.599Z,97.38
2022-11-07T07:09:45.542Z,97.38
2022-11-07T07:10:45.369Z,97.06
2022-11-07T07:11:45.619Z,97.43
2022-11-07T07:12:45.370Z,97.95
2022-11-07T07:13:45.648Z,98.25
2022-11-07T07:14:45.399Z,97.13
2022-11-07T07:15:51.215Z,97.49
2022-11-07T07:16:45.368Z,97.28
2022-11-07T07:17:45.519Z,97.18
2022-11-07T07:18:45.449Z,97.18
2022-11-07T07:19:45.463Z,97.28
2022-11-07T07:20:45.448Z,96.46
2022-11-07T07:21:45.490Z,96.67
2022-11-07T07:22:45.404Z,96.67
2022-11-07T07:23:45.478Z,97.28
2022-11-07T07:24:45.400Z,97.18
2022-11-07T07:25:45.471Z,96.56
2022-11-07T07:26:45.389Z,96.62
2022-11-07T07:27:45.190Z,96.56
2022-11-07T07:28:45.351Z,97.08
2022-11-07T07:29:45.280Z,97.44
2022-11-07T07:30:51.427Z,97.24
2022-11-07T07:31:45.240Z,97.71
2022-11-07T07:32:45.439Z,97.14
2022-11-07T07:34:06.829Z,97.50
2022-11-07T07:34:45.520Z,97.30
2022-11-07T07:36:06.902Z,97.61
2022-11-07T07:36:45.299Z,97.61
2022-11-07T07:37:45.235Z,97.50
2022-11-07T07:38:45.239Z,97.09
2022-11-07T07:39:45.289Z,97.87
2022-11-07T07:40:45.251Z,97.25
2022-11-07T07:41:45.200Z,97.77
2022-11-07T07:42:45.000Z,97.15
2022-11-07T07:43:45.272Z,97.52
2022-11-07T07:44:45.060Z,96.80
2022-11-07T07:45:45.269Z,96.03
2022-11-07T07:46:45.010Z,94.59
2022-11-07T07:47:45.181Z,95.42
2022-11-07T07:48:45.079Z,94.49
2022-11-07T07:49:45.151Z,95.57
2022-11-07T07:50:45.201Z,94.96
2022-11-07T07:51:45.371Z,95.47
2022-11-07T07:52:45.124Z,95.74
2022-11-07T07:53:45.109Z,95.32
2022-11-07T07:54:45.049Z,95.07
2022-11-07T07:55:45.180Z,95.07
2022-11-07T07:56:45.079Z,94.05
2022-11-07T07:57:45.040Z,94.46
2022-11-07T07:58:45.150Z,94.21
2022-11-07T07:59:44.870Z,94.01
2022-11-07T08:00:45.320Z,93.80
2022-11-07T08:01:45.109Z,93.04
2022-11-07T08:02:45.199Z,93.66
2022-11-07T08:04:00.770Z,92.53
2022-11-07T08:04:45.020Z,93.08
2022-11-07T08:05:44.890Z,93.55
2022-11-07T08:06:45.150Z,93.25
2022-11-07T08:07:45.039Z,93.45
2022-11-07T08:08:44.970Z,92.83
2022-11-07T08:09:44.870Z,93.04
2022-11-07T08:10:45.048Z,93.20
2022-11-07T08:11:45.048Z,91.97
2022-11-07T08:12:44.720Z,92.18
2022-11-07T08:13:44.988Z,91.01
2022-11-07T08:14:44.816Z,90.39
2022-11-07T08:15:44.921Z,90.25
2022-11-07T08:16:44.721Z,90.21
2022-11-07T08:17:45.996Z,90.00
2022-11-07T08:18:45.689Z,88.47
2022-11-07T08:19:44.950Z,88.74
2022-11-07T08:20:44.928Z,85.67
2022-11-07T08:21:44.819Z,88.70
2022-11-07T08:22:45.841Z,89.31
2022-11-07T08:23:44.832Z,88.18
2022-11-07T08:24:44.840Z,90.23
2022-11-07T08:25:44.801Z,87.88
2022-11-07T08:26:44.731Z,84.81
2022-11-07T08:27:45.699Z,87.67
2022-11-07T08:28:44.800Z,86.38
2022-11-07T08:29:44.673Z,88.70
2022-11-07T08:30:44.730Z,85.12
2022-11-07T08:31:44.649Z,88.92
2022-11-07T08:32:44.750Z,85.86
2022-11-07T08:33:45.818Z,85.65
2022-11-07T08:34:45.699Z,85.55
2022-11-07T08:35:45.642Z,86.57
2022-11-07T08:36:44.708Z,87.23
2022-11-07T08:37:45.549Z,88.00
2022-11-07T08:38:45.749Z,86.67
2022-11-07T08:39:45.580Z,85.61
2022-11-07T08:40:45.701Z,85.30
2022-11-07T08:41:44.831Z,87.96
2022-11-07T08:42:44.700Z,84.55
2022-11-07T08:43:45.658Z,82.10
2022-11-07T08:44:44.459Z,83.98
2022-11-07T08:45:44.610Z,86.80
2022-11-07T08:46:45.425Z,87.71
2022-11-07T08:47:44.559Z,86.35
2022-11-07T08:48:44.361Z,84.82
2022-11-07T08:49:44.599Z,86.61
2022-11-07T08:50:45.351Z,86.57
2022-11-07T08:52:06.228Z,83.72
2022-11-07T08:52:44.431Z,85.11
2022-11-07T08:53:45.501Z,83.74
2022-11-07T08:54:45.468Z,83.64
2022-11-07T08:55:44.491Z,80.85
2022-11-07T08:56:44.359Z,81.06
2022-11-07T08:57:45.488Z,78.76
2022-11-07T08:58:45.472Z,78.35
2022-11-07T08:59:44.488Z,82.15
2022-11-07T09:00:45.414Z,83.07
2022-11-07T09:02:04.302Z,83.95
2022-11-07T09:03:18.310Z,85.78
2022-11-07T09:04:06.062Z,83.70
2022-11-07T09:04:44.516Z,80.62
2022-11-07T09:05:44.260Z,82.24
2022-11-07T09:06:45.380Z,84.03
2022-11-07T09:07:45.310Z,78.81
2022-11-07T09:08:44.310Z,82.23
2022-11-07T09:09:44.400Z,78.36
2022-11-07T09:10:45.350Z,74.16
2022-11-07T09:11:44.359Z,72.68
2022-11-07T09:12:45.315Z,63.85
2022-11-07T09:13:45.220Z,61.51
2022-11-07T09:14:44.169Z,64.11
2022-11-07T09:15:50.331Z,65.05
2022-11-07T09:16:44.080Z,59.25
2022-11-07T09:17:44.378Z,62.09
2022-11-07T09:18:44.401Z,57.89
2022-11-07T09:19:44.281Z,54.94
2022-11-07T09:20:44.224Z,56.01
2022-11-07T09:21:45.180Z,55.49
2022-11-07T09:22:45.110Z,58.22
2022-11-07T09:23:44.180Z,61.02
2022-11-07T09:24:45.459Z,56.48
2022-11-07T09:25:44.220Z,60.88
2022-11-07T09:26:44.220Z,50.32
2022-11-07T09:27:44.191Z,57.42
2022-11-07T09:28:48.425Z,55.64
2022-11-07T09:29:45.541Z,57.86
2022-11-07T09:30:45.152Z,53.49
2022-11-07T09:31:43.960Z,61.10
2022-11-07T09:32:45.579Z,50.74
2022-11-07T09:33:43.979Z,47.90
2022-11-07T09:34:45.100Z,50.29
2022-11-07T09:35:45.071Z,49.40
2022-11-07T09:36:44.231Z,50.89
2022-11-07T09:37:44.969Z,52.69
2022-11-07T09:38:45.190Z,55.54
2022-11-07T09:39:43.983Z,52.37
2022-11-07T09:40:45.098Z,56.74
2022-11-07T09:41:45.030Z,55.44
2022-11-07T09:42:44.990Z,59.36
2022-11-07T09:43:44.970Z,55.94
2022-11-07T09:44:44.761Z,61.59
2022-11-07T09:45:43.900Z,59.69
2022-11-07T09:46:45.009Z,56.41
2022-11-07T09:47:43.914Z,55.63
2022-11-07T09:48:43.895Z,53.06
2022-11-07T09:49:43.960Z,53.64
2022-11-07T09:50:43.790Z,50.70
2022-11-07T09:51:45.999Z,54.68
2022-11-07T09:52:44.899Z,53.04
2022-11-07T09:53:43.930Z,45.79
2022-11-07T09:54:46.500Z,46.01
2022-11-07T09:55:44.878Z,46.84
2022-11-07T09:56:44.830Z,47.51
2022-11-07T09:57:43.910Z,47.31
2022-11-07T09:58:43.839Z,48.38
2022-11-07T09:59:44.016Z,48.31
2022-11-07T10:00:43.833Z,50.79
2022-11-07T10:01:43.719Z,49.57
2022-11-07T10:02:43.823Z,52.49
2022-11-07T10:04:10.140Z,49.00
2022-11-07T10:04:44.371Z,49.35
2022-11-07T10:05:43.699Z,52.09
2022-11-07T10:06:43.851Z,51.64
2022-11-07T10:07:43.760Z,53.06
2022-11-07T10:08:43.831Z,54.19
2022-11-07T10:09:43.563Z,47.74
2022-11-07T10:10:43.769Z,47.94
2022-11-07T10:11:43.632Z,46.56
2022-11-07T10:12:44.951Z,49.60
2022-11-07T10:13:43.649Z,55.26
2022-11-07T10:14:43.640Z,47.66
2022-11-07T10:15:43.698Z,50.17
2022-11-07T10:16:43.470Z,49.50
2022-11-07T10:17:43.678Z,49.17
2022-11-07T10:18:43.431Z,49.97
2022-11-07T10:19:43.610Z,50.92
2022-11-07T10:20:43.449Z,48.88
2022-11-07T10:21:43.700Z,50.18
2022-11-07T10:22:43.459Z,47.32
2022-11-07T10:23:43.628Z,43.92
2022-11-07T10:24:43.470Z,45.07
2022-11-07T10:25:43.560Z,42.55
2022-11-07T10:26:43.515Z,43.54
2022-11-07T10:27:43.708Z,42.99
2022-11-07T10:28:43.509Z,41.47
2022-11-07T10:29:44.777Z,46.12
2022-11-07T10:30:43.581Z,43.96
2022-11-07T10:31:43.270Z,45.94
2022-11-07T10:32:43.488Z,42.27
2022-11-07T10:33:43.378Z,43.56
2022-11-07T10:34:43.611Z,43.96
2022-11-07T10:35:43.380Z,47.61
2022-11-07T10:36:43.478Z,47.17
2022-11-07T10:37:43.479Z,45.57
2022-11-07T10:38:43.639Z,45.63
2022-11-07T10:39:43.329Z,44.28
2022-11-07T10:40:43.489Z,44.48
2022-11-07T10:41:43.279Z,47.61
2022-11-07T10:42:43.415Z,46.72
2022-11-07T10:43:43.500Z,46.04
2022-11-07T10:44:43.439Z,48.35
2022-11-07T10:45:43.330Z,48.05
2022-11-07T10:46:43.212Z,54.12
2022-11-07T10:47:43.259Z,55.86
2022-11-07T10:48:43.249Z,59.13
2022-11-07T10:49:43.359Z,59.89
2022-11-07T10:50:43.219Z,60.35
2022-11-07T10:51:43.262Z,63.78
2022-11-07T10:52:43.160Z,61.79
2022-11-07T10:53:43.290Z,63.64
2022-11-07T10:54:43.101Z,63.06
2022-11-07T10:55:43.341Z,65.08
2022-11-07T10:56:43.151Z,66.22
2022-11-07T10:57:43.271Z,65.75
2022-11-07T10:58:43.140Z,65.84
2022-11-07T10:59:43.170Z,65.98
2022-11-07T11:00:43.218Z,67.19
2022-11-07T11:01:43.265Z,65.27
2022-11-07T11:02:43.201Z,66.52
2022-11-07T11:03:44.970Z,66.41
2022-11-07T11:30:31.075Z,66.55
2022-11-07T11:31:31.423Z,66.35
2022-11-07T11:32:31.523Z,66.14
2022-11-07T11:58:35.088Z,63.24
2022-11-07T11:59:18.779Z,61.92
2022-11-07T12:00:19.001Z,62.26
2022-11-07T12:01:18.662Z,63.44
2022-11-07T12:02:18.858Z,63.34
2022-11-07T12:03:19.215Z,62.43
2022-11-07T12:04:19.848Z,63.61
2022-11-07T12:05:19.661Z,63.51
2022-11-07T12:06:18.787Z,63.78
2022-11-07T12:07:18.608Z,62.37
2022-11-07T12:08:18.757Z,61.56
2022-11-07T12:09:18.689Z,61.16
2022-11-07T12:10:18.749Z,61.56
2022-11-07T12:11:18.637Z,61.36
2022-11-07T12:12:18.510Z,61.36
2022-11-07T12:13:18.869Z,61.87
2022-11-07T12:14:18.558Z,60.55
2022-11-07T12:15:18.588Z,61.56
2022-11-07T12:16:18.518Z,61.36
2022-11-07T12:17:18.150Z,60.96
2022-11-07T12:18:18.480Z,61.19
2022-11-07T12:19:18.670Z,60.98
2022-11-07T12:20:18.509Z,60.58
2022-11-07T12:21:18.560Z,60.07
2022-11-07T12:22:18.521Z,60.48
2022-11-07T12:23:18.863Z,60.78
2022-11-07T12:24:18.469Z,60.58
2022-11-07T12:25:18.609Z,60.48
2022-11-07T12:26:18.800Z,60.38
2022-11-07T12:29:04.193Z,60.88
2022-11-07T12:30:06.106Z,61.08
2022-11-07T12:31:05.891Z,60.17
2022-11-07T12:32:04.981Z,59.97
2022-11-07T12:51:02.502Z,61.29
2022-11-07T12:51:46.558Z,60.27
2022-11-07T12:52:44.932Z,60.17
2022-11-07T12:53:46.584Z,60.68
2022-11-07T13:03:02.438Z,60.27
2022-11-07T13:04:01.920Z,60.38
2022-11-07T13:34:54.480Z,61.56
2022-11-07T13:35:42.848Z,61.16
2022-11-07T13:36:43.479Z,62.37
2022-11-07T13:37:42.610Z,62.77
2022-11-07T13:39:58.415Z,63.58
2022-11-07T13:42:20.748Z,62.87
2022-11-07T13:43:08.619Z,59.64
2022-11-07T13:51:19.518Z,61.92
2022-11-07T13:52:19.747Z,62.73
2022-11-07T13:56:53.027Z,62.93
2022-11-07T13:57:53.466Z,63.24
2022-11-07T13:58:53.045Z,64.65
2022-11-07T13:59:53.292Z,67.11
2022-11-07T14:00:53.275Z,67.62
2022-11-07T14:01:53.273Z,67.22
2022-11-07T14:02:53.335Z,67.05
2022-11-07T14:03:53.206Z,67.76
2022-11-07T14:05:15.286Z,68.46
2022-11-07T14:07:09.065Z,69.57
2022-11-07T14:08:09.533Z,68.87
2022-11-07T14:10:27.808Z,69.81
2022-11-07T14:11:19.961Z,69.81
2022-11-07T14:12:19.821Z,70.21
2022-11-07T14:13:20.099Z,70.12
2022-11-07T14:14:19.761Z,70.21
2022-11-07T14:16:35.761Z,70.25
2022-11-07T14:17:36.220Z,71.57
2022-11-07T14:18:37.240Z,72.38
2022-11-07T14:19:37.202Z,72.72
2022-11-07T14:20:37.080Z,72.52
2022-11-07T14:21:37.240Z,72.01
2022-11-07T14:22:37.293Z,70.96
2022-11-07T14:23:36.121Z,70.05
2022-11-07T14:24:36.155Z,69.95
2022-11-07T14:25:35.932Z,69.74
2022-11-07T14:26:39.984Z,69.44
2022-11-07T14:27:35.902Z,69.74
2022-11-07T14:28:36.090Z,70.05
2022-11-07T14:29:35.886Z,70.45
2022-11-07T14:30:36.030Z,70.35
2022-11-07T14:31:35.955Z,70.56
2022-11-07T14:32:36.083Z,70.96
2022-11-07T14:33:36.070Z,71.40
2022-11-07T14:34:36.091Z,72.11
2022-11-07T14:35:36.323Z,72.31
2022-11-07T14:36:36.020Z,72.11
2022-11-07T14:37:36.061Z,72.31
2022-11-07T14:38:36.181Z,72.72
2022-11-07T14:39:35.931Z,73.46
2022-11-07T14:40:35.764Z,74.17
2022-11-07T14:41:35.930Z,73.97
2022-11-07T14:42:35.751Z,73.77
2022-11-07T14:43:36.081Z,73.57
2022-11-07T14:45:04.407Z,73.87
2022-11-07T14:46:10.722Z,74.21
2022-11-07T14:46:36.502Z,74.41
2022-11-07T14:47:36.090Z,74.51
2022-11-07T14:48:35.841Z,74.51
2022-11-07T14:49:35.910Z,74.31
2022-11-07T14:50:35.771Z,74.31
2022-11-07T14:51:35.871Z,74.21
2022-11-07T14:52:35.752Z,74.01
2022-11-07T14:53:36.082Z,73.90
2022-11-07T14:54:35.771Z,73.90
2022-11-07T14:55:35.668Z,73.66
2022-11-07T14:56:35.756Z,74.48
2022-11-07T14:57:35.583Z,74.27
2022-11-07T14:58:35.822Z,74.88
2022-11-07T14:59:35.623Z,74.68
2022-11-07T15:00:35.882Z,75.52
2022-11-07T15:01:35.706Z,74.41